Benton Harbor, MI (49022)

12:21 PM EST on January 24, 2017 (GMT -0500)
Duncan House B and B | | Change Station

Elev 676 ft 42.10 °N, 86.49 °W | Updated 4 seconds ago

Overcast
Overcast
38.5 °F
Feels Like 36 °F
N
3.5
Wind Variable Wind from WNW
Gusts 3.5 mph

Today
High -- | Low -- °F
--% Chance of Precip.
Yesterday
High -- | Low -- °F
Precip. -- in
Pressure 29.88 in
Visibility 10.0 miles
Clouds Overcast 800 ft
Windchill 36 °F
Dew Point 37 °F
Humidity 93%
Rainfall 0.00 in
Snow Depth Not available.
8:05 AM 5:50 PM
Waning Crescent, 11% visible
METAR KBEH 241653Z AUTO 29010KT 10SM OVC008 03/02 A2987 RMK AO2 SLP118 T00330017
Pressure 29.88 in
Visibility 10.0 miles
Clouds Overcast 800 ft
Windchill 36 °F
Dew Point 37 °F
Humidity 93%
Rainfall 0.00 in
Snow Depth Not available.
8:05 AM 5:50 PM
Waning Crescent, 11% visible
METAR KBEH 241653Z AUTO 29010KT 10SM OVC008 03/02 A2987 RMK AO2 SLP118 T00330017

Get Your Daily Forecast Email!

Thanks for signing up!

Be on the lookout for a verification email in your inbox.

You'll start receiving the daily forecast at 8 AM.

×

10-Day Weather Forecast

Almanac

Astronomy

Jan. 24, 2017 Rise Set
Actual Time
Civil Twilight
Nautical Twilight
Astronomical Twilight
Moon
Length of Visible Light
Length of Day
Tomorrow will be .
, % of the Moon is Illuminated

Today's Extremes

State Highs State Lows

Community

WunderPhotos

Upload Photos

1,962,540 photos uploaded!

WunderBlog® & News

Nearby

Air Quality

  Air Quality AQ Index Pollutant
Not available.

Snow Depth

Station Depth Elevation

Earthquake Activity

City Distance Mag. Time & Date
Minimum magnitude displayed is 2.5.

Coastal Water Temperatures

Place Temperature

Stations

Nearby Weather Stations

Station Location Temp. Windchill Dew Point Humidity Wind Precip. Elev Updated Type
                   

Watches & Warnings

There are currently no watches in effect.